createdAt,value
2022-08-12T00:00:59.807Z,57.69
2022-08-12T00:02:03.696Z,58.02
2022-08-12T00:02:59.775Z,58.02
2022-08-12T00:03:59.737Z,58.82
2022-08-12T00:04:59.724Z,58.62
2022-08-12T00:06:04.865Z,58.52
2022-08-12T00:06:59.692Z,58.62
2022-08-12T00:07:59.680Z,57.95
2022-08-12T00:08:59.665Z,58.25
2022-08-12T00:09:59.653Z,57.85
2022-08-12T00:10:59.650Z,58.45
2022-08-12T00:11:59.620Z,58.15
2022-08-12T00:12:59.611Z,58.35
2022-08-12T00:13:59.586Z,58.45
2022-08-12T00:14:59.566Z,58.45
2022-08-12T00:15:59.558Z,58.35
2022-08-12T00:16:59.584Z,59.45
2022-08-12T00:17:59.526Z,58.65
2022-08-12T00:18:59.516Z,58.85
2022-08-12T00:19:59.500Z,59.28
2022-08-12T00:20:59.474Z,58.75
2022-08-12T00:21:59.488Z,58.37
2022-08-12T00:23:00.164Z,59.08
2022-08-12T00:23:59.430Z,59.38
2022-08-12T00:24:59.428Z,60.38
2022-08-12T00:26:21.630Z,60.11
2022-08-12T00:26:59.408Z,59.31
2022-08-12T00:27:59.389Z,60.81
2022-08-12T00:28:59.357Z,61.51
2022-08-12T00:29:59.337Z,61.01
2022-08-12T00:30:59.320Z,60.94
2022-08-12T00:32:00.295Z,60.84
2022-08-12T00:32:59.599Z,60.81
2022-08-12T00:33:59.294Z,61.11
2022-08-12T00:34:59.271Z,61.21
2022-08-12T00:35:59.238Z,61.04
2022-08-12T00:37:04.633Z,61.94
2022-08-12T00:37:59.214Z,61.94
2022-08-12T00:38:59.224Z,60.84
2022-08-12T00:39:59.201Z,61.14
2022-08-12T00:40:59.167Z,61.54
2022-08-12T00:41:59.146Z,61.24
2022-08-12T00:42:59.155Z,61.24
2022-08-12T00:43:59.128Z,62.94
2022-08-12T00:44:59.100Z,61.74
2022-08-12T00:45:59.107Z,61.54
2022-08-12T00:46:59.079Z,61.64
2022-08-12T00:47:59.060Z,61.74
2022-08-12T00:48:59.052Z,61.94
2022-08-12T00:49:59.073Z,61.34
2022-08-12T00:50:59.029Z,60.94
2022-08-12T00:51:58.989Z,61.74
2022-08-12T00:52:58.993Z,62.04
2022-08-12T00:53:58.951Z,62.34
2022-08-12T00:54:58.973Z,61.64
2022-08-12T00:55:58.942Z,62.47
2022-08-12T00:56:58.918Z,62.87
2022-08-12T00:57:58.894Z,62.47
2022-08-12T00:58:58.885Z,63.37
2022-08-12T00:59:58.871Z,63.07
2022-08-12T01:00:58.898Z,62.87
2022-08-12T01:02:04.265Z,62.87
2022-08-12T01:02:58.831Z,61.97
2022-08-12T01:03:59.456Z,62.47
2022-08-12T01:04:58.798Z,63.07
2022-08-12T01:05:58.784Z,63.28
2022-08-12T01:06:58.745Z,63.57
2022-08-12T01:07:58.733Z,63.57
2022-08-12T01:08:58.720Z,63.17
2022-08-12T01:09:58.702Z,63.47
2022-08-12T01:10:58.711Z,63.37
2022-08-12T01:11:58.690Z,63.47
2022-08-12T01:13:07.575Z,63.57
2022-08-12T01:13:58.649Z,63.17
2022-08-12T01:14:58.622Z,63.47
2022-08-12T01:15:58.603Z,63.20
2022-08-12T01:16:58.608Z,64.40
2022-08-12T01:17:58.582Z,65.08
2022-08-12T01:18:58.552Z,67.18
2022-08-12T01:19:58.553Z,67.49
2022-08-12T01:20:58.521Z,67.88
2022-08-12T01:21:58.522Z,67.79
2022-08-12T01:22:58.500Z,66.99
2022-08-12T01:23:58.485Z,67.45
2022-08-12T01:24:58.461Z,66.15
2022-08-12T01:25:58.434Z,65.25
2022-08-12T01:26:58.430Z,65.55
2022-08-12T01:27:58.406Z,65.55
2022-08-12T01:28:58.738Z,65.45
2022-08-12T01:29:58.376Z,66.35
2022-08-12T01:30:58.358Z,66.35
2022-08-12T01:31:58.336Z,65.85
2022-08-12T01:32:58.324Z,66.25
2022-08-12T01:33:58.305Z,66.15
2022-08-12T01:34:58.314Z,65.85
2022-08-12T01:36:08.531Z,65.68
2022-08-12T01:36:58.260Z,65.78
2022-08-12T01:37:58.252Z,65.48
2022-08-12T01:38:58.231Z,65.48
2022-08-12T01:40:33.684Z,66.01
2022-08-12T01:40:58.210Z,66.41
2022-08-12T01:41:58.176Z,66.11
2022-08-12T01:42:58.156Z,67.11
2022-08-12T01:43:58.144Z,67.92
2022-08-12T01:44:58.124Z,68.52
2022-08-12T01:45:58.128Z,69.32
2022-08-12T01:46:58.094Z,69.62
2022-08-12T01:47:58.084Z,69.42
2022-08-12T01:48:58.063Z,69.73
2022-08-12T01:49:58.070Z,70.12
2022-08-12T01:51:01.239Z,70.26
2022-08-12T01:52:20.664Z,69.82
2022-08-12T01:52:58.000Z,69.85
2022-08-12T01:53:58.004Z,69.73
2022-08-12T01:54:57.984Z,70.06
2022-08-12T01:55:57.970Z,69.96
2022-08-12T01:56:57.929Z,70.06
2022-08-12T01:58:01.396Z,69.35
2022-08-12T01:58:57.897Z,68.95
2022-08-12T01:59:57.882Z,67.55
2022-08-12T02:00:57.935Z,68.15
2022-08-12T02:01:57.897Z,68.38
2022-08-12T02:02:57.833Z,68.29
2022-08-12T02:03:57.818Z,68.49
2022-08-12T02:04:57.799Z,68.68
2022-08-12T02:05:57.823Z,69.89
2022-08-12T02:06:57.766Z,69.66
2022-08-12T02:07:57.769Z,70.09
2022-08-12T02:08:57.733Z,70.66
2022-08-12T02:09:57.718Z,69.66
2022-08-12T02:10:57.701Z,69.46
2022-08-12T02:11:58.837Z,70.09
2022-08-12T02:12:57.667Z,70.26
2022-08-12T02:13:57.656Z,70.29
2022-08-12T02:14:57.673Z,70.16
2022-08-12T02:15:57.627Z,70.26
2022-08-12T02:16:57.600Z,70.46
2022-08-12T02:17:57.608Z,70.26
2022-08-12T02:18:57.566Z,70.96
2022-08-12T02:19:57.549Z,70.89
2022-08-12T02:20:57.556Z,71.00
2022-08-12T02:21:57.513Z,71.16
2022-08-12T02:22:57.508Z,71.09
2022-08-12T02:23:57.489Z,70.89
2022-08-12T02:24:57.466Z,71.50
2022-08-12T02:25:57.465Z,71.00
2022-08-12T02:26:57.446Z,71.09
2022-08-12T02:27:57.416Z,71.36
2022-08-12T02:28:57.399Z,71.30
2022-08-12T02:29:57.407Z,71.70
2022-08-12T02:30:57.365Z,71.60
2022-08-12T02:31:57.345Z,71.60
2022-08-12T02:32:57.338Z,71.40
2022-08-12T02:33:57.314Z,71.40
2022-08-12T02:34:57.298Z,72.71
2022-08-12T02:35:57.298Z,72.44
2022-08-12T02:36:57.562Z,71.50
2022-08-12T02:37:57.257Z,71.70
2022-08-12T02:38:57.228Z,72.00
2022-08-12T02:39:57.251Z,71.30
2022-08-12T02:40:57.212Z,71.50
2022-08-12T02:41:57.182Z,71.94
2022-08-12T02:42:57.185Z,71.43
2022-08-12T02:43:57.146Z,71.43
2022-08-12T02:44:57.135Z,71.43
2022-08-12T02:45:57.114Z,72.03
2022-08-12T02:46:57.090Z,73.04
2022-08-12T02:47:59.770Z,72.84
2022-08-12T02:48:57.081Z,71.94
2022-08-12T02:49:57.053Z,72.13
2022-08-12T02:50:57.025Z,72.33
2022-08-12T02:51:57.009Z,72.13
2022-08-12T02:52:57.018Z,72.24
2022-08-12T02:54:04.365Z,71.47
2022-08-12T02:54:56.956Z,71.43
2022-08-12T02:55:56.942Z,71.77
2022-08-12T02:56:56.925Z,72.07
2022-08-12T02:57:56.924Z,71.67
2022-08-12T02:58:56.906Z,71.47
2022-08-12T02:59:56.876Z,71.77
2022-08-12T03:00:57.044Z,71.97
2022-08-12T03:01:56.842Z,72.07
2022-08-12T03:02:56.821Z,72.27
2022-08-12T03:03:56.813Z,72.37
2022-08-12T03:04:56.803Z,72.07
2022-08-12T03:05:56.779Z,72.77
2022-08-12T03:06:56.752Z,72.77
2022-08-12T03:08:00.054Z,73.68
2022-08-12T03:08:56.721Z,73.18
2022-08-12T03:10:04.351Z,72.84
2022-08-12T03:10:56.848Z,72.77
2022-08-12T03:11:56.761Z,73.38
2022-08-12T03:12:56.654Z,73.68
2022-08-12T03:13:56.639Z,73.58
2022-08-12T03:14:56.636Z,72.87
2022-08-12T03:15:56.601Z,72.77
2022-08-12T03:16:56.606Z,72.87
2022-08-12T03:18:25.549Z,72.37
2022-08-12T03:18:56.570Z,72.61
2022-08-12T03:20:09.853Z,72.81
2022-08-12T03:20:56.548Z,73.21
2022-08-12T03:22:09.122Z,72.81
2022-08-12T03:22:56.485Z,73.31
2022-08-12T03:23:56.464Z,73.91
2022-08-12T03:24:56.450Z,73.31
2022-08-12T03:25:56.438Z,73.31
2022-08-12T03:27:00.427Z,73.41
2022-08-12T03:27:56.401Z,73.41
2022-08-12T03:28:56.379Z,73.61
2022-08-12T03:29:56.364Z,73.71
2022-08-12T03:30:56.943Z,73.91
2022-08-12T03:31:56.351Z,73.81
2022-08-12T03:32:56.310Z,73.81
2022-08-12T03:34:01.402Z,73.81
2022-08-12T03:34:56.277Z,73.91
2022-08-12T03:35:56.260Z,73.85
2022-08-12T03:36:56.264Z,73.75
2022-08-12T03:37:56.229Z,73.81
2022-08-12T03:38:56.211Z,73.85
2022-08-12T03:39:56.259Z,73.35
2022-08-12T03:40:56.181Z,74.65
2022-08-12T03:41:57.921Z,74.85
2022-08-12T03:42:56.142Z,75.05
2022-08-12T03:43:56.127Z,75.12
2022-08-12T03:44:56.124Z,75.02
2022-08-12T03:45:56.804Z,74.92
2022-08-12T03:46:56.090Z,75.32
2022-08-12T03:47:56.072Z,74.52
2022-08-12T03:48:56.040Z,74.82
2022-08-12T03:49:56.021Z,74.52
2022-08-12T03:50:56.019Z,74.52
2022-08-12T03:51:55.990Z,74.41
2022-08-12T03:52:55.967Z,74.62
2022-08-12T03:53:55.953Z,74.52
2022-08-12T03:54:55.954Z,74.82
2022-08-12T03:55:55.919Z,74.52
2022-08-12T03:56:55.918Z,74.32
2022-08-12T03:57:55.894Z,74.62
2022-08-12T03:58:55.865Z,74.72
2022-08-12T03:59:55.853Z,75.02
2022-08-12T04:00:55.917Z,74.62
2022-08-12T04:01:55.814Z,73.91
2022-08-12T04:02:55.807Z,74.52
2022-08-12T04:03:55.786Z,75.62
2022-08-12T04:04:55.783Z,74.62
2022-08-12T04:05:56.777Z,75.62
2022-08-12T04:06:55.731Z,74.72
2022-08-12T04:07:58.093Z,74.82
2022-08-12T04:08:55.697Z,75.22
2022-08-12T04:09:55.683Z,74.45
2022-08-12T04:10:55.681Z,75.22
2022-08-12T04:11:55.641Z,75.05
2022-08-12T04:12:55.634Z,75.46
2022-08-12T04:13:55.607Z,75.86
2022-08-12T04:14:55.598Z,74.72
2022-08-12T04:15:55.574Z,75.76
2022-08-12T04:16:55.591Z,75.35
2022-08-12T04:18:07.597Z,74.65
2022-08-12T04:18:55.527Z,75.35
2022-08-12T04:19:55.510Z,75.15
2022-08-12T04:20:55.499Z,75.15
2022-08-12T04:22:03.062Z,75.66
2022-08-12T04:22:55.536Z,75.46
2022-08-12T04:23:55.501Z,75.15
2022-08-12T04:24:55.426Z,75.46
2022-08-12T04:25:55.406Z,75.56
2022-08-12T04:26:55.392Z,75.46
2022-08-12T04:27:55.373Z,75.15
2022-08-12T04:28:55.384Z,75.66
2022-08-12T04:30:17.243Z,75.26
2022-08-12T04:30:55.323Z,75.86
2022-08-12T04:31:55.300Z,75.56
2022-08-12T04:32:55.298Z,75.52
2022-08-12T04:33:55.303Z,75.76
2022-08-12T04:34:55.274Z,75.66
2022-08-12T04:35:55.232Z,74.92
2022-08-12T04:36:55.219Z,75.12
2022-08-12T04:37:58.451Z,75.22
2022-08-12T04:38:59.442Z,74.72
2022-08-12T04:39:55.264Z,74.95
2022-08-12T04:40:55.171Z,74.65
2022-08-12T04:41:58.451Z,75.22
2022-08-12T04:42:55.113Z,75.22
2022-08-12T04:44:02.089Z,74.92
2022-08-12T04:44:55.077Z,75.12
2022-08-12T04:45:55.100Z,74.01
2022-08-12T04:46:55.046Z,74.62
2022-08-12T04:47:55.029Z,73.71
2022-08-12T04:48:55.016Z,73.91
2022-08-12T04:49:55.055Z,73.61
2022-08-12T04:50:55.087Z,73.61
2022-08-12T04:51:59.051Z,73.41
2022-08-12T04:52:54.946Z,73.85
2022-08-12T04:53:54.936Z,73.65
2022-08-12T04:54:55.027Z,73.61
2022-08-12T04:55:54.924Z,74.52
2022-08-12T04:57:03.071Z,74.72
2022-08-12T04:57:54.898Z,73.81
2022-08-12T04:58:54.850Z,73.71
2022-08-12T04:59:54.883Z,74.62
2022-08-12T05:00:54.868Z,75.12
2022-08-12T05:01:54.996Z,74.72
2022-08-12T05:02:54.847Z,75.02
2022-08-12T05:03:54.762Z,75.02
2022-08-12T05:04:54.808Z,74.88
2022-08-12T05:05:54.753Z,74.58
2022-08-12T05:06:54.716Z,74.58
2022-08-12T05:07:55.280Z,74.48
2022-08-12T05:08:54.721Z,74.55
2022-08-12T05:09:59.058Z,73.84
2022-08-12T05:10:54.648Z,73.74
2022-08-12T05:11:54.653Z,73.44
2022-08-12T05:12:54.686Z,73.14
2022-08-12T05:13:54.591Z,72.71
2022-08-12T05:14:54.587Z,72.40
2022-08-12T05:16:05.179Z,71.90
2022-08-12T05:16:54.598Z,72.10
2022-08-12T05:17:54.573Z,71.90
2022-08-12T05:18:54.508Z,70.86
2022-08-12T05:19:54.540Z,70.96
2022-08-12T05:20:54.476Z,70.66
2022-08-12T05:21:54.481Z,70.32
2022-08-12T05:22:57.960Z,70.12
2022-08-12T05:23:54.577Z,70.06
2022-08-12T05:24:54.413Z,69.32
2022-08-12T05:25:54.390Z,69.19
2022-08-12T05:26:54.413Z,69.12
2022-08-12T05:27:57.954Z,68.49
2022-08-12T05:28:54.361Z,69.39
2022-08-12T05:30:06.407Z,68.99
2022-08-12T05:30:54.364Z,68.99
2022-08-12T05:31:54.393Z,68.89
2022-08-12T05:32:54.283Z,68.29
2022-08-12T05:33:54.285Z,68.85
2022-08-12T05:34:54.243Z,68.35
2022-08-12T05:35:54.231Z,67.96
2022-08-12T05:36:54.419Z,69.06
2022-08-12T05:37:54.201Z,69.06
2022-08-12T05:38:54.176Z,68.76
2022-08-12T05:39:54.199Z,67.62
2022-08-12T05:40:54.273Z,68.26
2022-08-12T05:41:54.134Z,67.32
2022-08-12T05:42:54.128Z,67.42
2022-08-12T05:43:54.120Z,67.42
2022-08-12T05:44:54.202Z,67.22
2022-08-12T05:45:54.082Z,67.12
2022-08-12T05:46:54.060Z,67.22
2022-08-12T05:47:54.452Z,66.69
2022-08-12T05:48:54.023Z,67.99
2022-08-12T05:49:53.997Z,67.19
2022-08-12T05:50:54.001Z,67.49
2022-08-12T05:51:53.989Z,66.99
2022-08-12T05:52:54.097Z,66.19
2022-08-12T05:53:53.970Z,65.78
2022-08-12T05:54:57.849Z,65.75
2022-08-12T05:55:53.900Z,65.95
2022-08-12T05:56:53.884Z,65.95
2022-08-12T05:57:53.871Z,66.16
2022-08-12T05:58:53.889Z,65.05
2022-08-12T05:59:53.841Z,65.86
2022-08-12T06:00:53.845Z,65.42
2022-08-12T06:02:09.254Z,65.92
2022-08-12T06:02:53.833Z,65.55
2022-08-12T06:03:53.774Z,65.05
2022-08-12T06:04:53.848Z,64.92
2022-08-12T06:05:55.570Z,64.83
2022-08-12T06:06:53.841Z,65.92
2022-08-12T06:08:01.258Z,65.92
2022-08-12T06:08:53.764Z,65.83
2022-08-12T06:09:53.782Z,65.69
2022-08-12T06:10:53.739Z,65.59
2022-08-12T06:12:05.230Z,65.69
2022-08-12T06:12:53.627Z,65.09
2022-08-12T06:13:54.746Z,65.79
2022-08-12T06:14:53.607Z,65.69
2022-08-12T06:15:53.579Z,64.89
2022-08-12T06:16:53.689Z,65.66
2022-08-12T06:17:53.648Z,65.86
2022-08-12T06:18:53.548Z,65.86
2022-08-12T06:20:27.355Z,66.06
2022-08-12T06:20:53.860Z,65.56
2022-08-12T06:21:53.577Z,64.83
2022-08-12T06:22:54.597Z,65.23
2022-08-12T06:23:53.529Z,64.83
2022-08-12T06:24:53.493Z,64.53
2022-08-12T06:25:53.429Z,63.33
2022-08-12T06:26:53.426Z,63.00
2022-08-12T06:28:07.606Z,63.10
2022-08-12T06:28:53.396Z,63.00
2022-08-12T06:30:08.847Z,63.40
2022-08-12T06:31:22.147Z,62.90
2022-08-12T06:31:53.335Z,63.17
2022-08-12T06:33:18.590Z,62.97
2022-08-12T06:33:59.774Z,63.37
2022-08-12T06:35:27.249Z,62.97
2022-08-12T06:35:57.534Z,62.97
2022-08-12T06:36:53.251Z,63.14
2022-08-12T06:37:56.982Z,62.24
2022-08-12T06:38:53.244Z,61.55
2022-08-12T06:39:53.235Z,62.34
2022-08-12T06:40:53.207Z,62.15
2022-08-12T06:42:10.671Z,61.52
2022-08-12T06:42:53.159Z,61.25
2022-08-12T06:44:04.406Z,60.82
2022-08-12T06:44:53.135Z,61.11
2022-08-12T06:45:53.128Z,60.82
2022-08-12T06:46:53.115Z,59.12
2022-08-12T06:47:53.084Z,57.10
2022-08-12T06:48:53.075Z,53.74
2022-08-12T06:49:53.052Z,51.42
2022-08-12T06:50:53.064Z,50.10
2022-08-12T06:51:54.491Z,50.90
2022-08-12T06:52:53.026Z,50.40
2022-08-12T06:53:53.004Z,49.80
2022-08-12T06:54:52.980Z,48.88
2022-08-12T06:55:58.585Z,48.68
2022-08-12T06:58:05.701Z,48.76
2022-08-12T06:58:06.588Z,48.36
2022-08-12T06:58:52.940Z,47.07
2022-08-12T06:59:52.904Z,47.47
2022-08-12T07:00:52.959Z,47.34
2022-08-12T07:01:52.874Z,46.95
2022-08-12T07:02:52.872Z,47.14
2022-08-12T07:03:52.866Z,46.95
2022-08-12T07:04:52.851Z,47.94
2022-08-12T07:05:52.830Z,46.95
2022-08-12T07:06:52.799Z,47.42
2022-08-12T07:07:52.803Z,46.62
2022-08-12T07:08:52.778Z,45.83
2022-08-12T07:10:04.421Z,46.92
2022-08-12T07:10:52.741Z,47.52
2022-08-12T07:11:52.726Z,46.80
2022-08-12T07:12:52.746Z,46.62
2022-08-12T07:14:11.425Z,47.40
2022-08-12T07:14:52.715Z,47.30
2022-08-12T07:15:52.691Z,45.21
2022-08-12T07:16:52.659Z,46.31
2022-08-12T07:17:52.649Z,46.19
2022-08-12T07:18:52.670Z,46.08
2022-08-12T07:19:52.616Z,45.98
2022-08-12T07:20:53.473Z,45.98
2022-08-12T07:21:59.947Z,45.68
2022-08-12T07:22:52.572Z,45.76
2022-08-12T07:23:52.558Z,45.17
2022-08-12T07:24:52.566Z,46.16
2022-08-12T07:25:56.492Z,45.96
2022-08-12T07:26:52.518Z,45.67
2022-08-12T07:27:52.665Z,46.16
2022-08-12T07:28:52.490Z,44.85
2022-08-12T07:29:58.126Z,45.05
2022-08-12T07:30:52.480Z,45.45
2022-08-12T07:31:52.456Z,44.85
2022-08-12T07:32:52.435Z,45.05
2022-08-12T07:33:52.423Z,44.13
2022-08-12T07:34:52.403Z,45.32
2022-08-12T07:35:52.409Z,45.45
2022-08-12T07:36:52.379Z,45.12
2022-08-12T07:37:52.362Z,45.12
2022-08-12T07:38:52.356Z,44.73
2022-08-12T07:39:59.683Z,45.52
2022-08-12T07:40:52.573Z,44.73
2022-08-12T07:41:52.308Z,44.13
2022-08-12T07:42:52.282Z,45.20
2022-08-12T07:43:52.273Z,44.01
2022-08-12T07:44:52.338Z,43.32
2022-08-12T07:45:52.317Z,44.21
2022-08-12T07:46:52.249Z,44.11
2022-08-12T07:47:52.215Z,43.82
2022-08-12T07:48:52.205Z,43.12
2022-08-12T07:50:04.909Z,44.21
2022-08-12T07:50:52.176Z,43.32
2022-08-12T07:51:52.169Z,42.82
2022-08-12T07:52:52.150Z,43.42
2022-08-12T07:54:00.547Z,43.42
2022-08-12T07:54:52.158Z,43.91
2022-08-12T07:55:52.132Z,43.20
2022-08-12T07:56:52.129Z,43.40
2022-08-12T07:57:52.109Z,43.18
2022-08-12T07:58:52.063Z,43.18
2022-08-12T07:59:55.574Z,43.16
2022-08-12T08:00:52.038Z,42.57
2022-08-12T08:01:52.388Z,43.26
2022-08-12T08:02:52.021Z,42.64
2022-08-12T08:03:51.992Z,41.46
2022-08-12T08:04:51.990Z,42.07
2022-08-12T08:05:52.046Z,41.46
2022-08-12T08:06:51.961Z,41.65
2022-08-12T08:07:52.076Z,41.65
2022-08-12T08:08:51.942Z,43.13
2022-08-12T08:09:58.706Z,42.94
2022-08-12T08:10:51.980Z,42.32
2022-08-12T08:11:51.918Z,42.82
2022-08-12T08:12:52.736Z,42.52
2022-08-12T08:13:51.984Z,41.73
2022-08-12T08:14:51.983Z,41.83
2022-08-12T08:16:03.165Z,41.41
2022-08-12T08:16:51.825Z,41.31
2022-08-12T08:17:51.835Z,41.61
2022-08-12T08:18:51.798Z,40.80
2022-08-12T08:20:03.081Z,41.69
2022-08-12T08:20:51.801Z,39.03
2022-08-12T08:21:51.761Z,39.72
2022-08-12T08:22:52.022Z,39.32
2022-08-12T08:23:55.571Z,39.81
2022-08-12T08:24:51.730Z,39.42
2022-08-12T08:25:51.811Z,41.00
2022-08-12T08:26:51.703Z,40.61
2022-08-12T08:27:51.686Z,42.08
2022-08-12T08:28:51.691Z,39.11
2022-08-12T08:29:51.657Z,39.72
2022-08-12T08:30:51.665Z,40.21
2022-08-12T08:31:51.630Z,39.81
2022-08-12T08:32:51.613Z,38.41
2022-08-12T08:34:04.733Z,38.41
2022-08-12T08:34:53.707Z,39.00
2022-08-12T08:35:54.272Z,39.97
2022-08-12T08:36:51.719Z,38.79
2022-08-12T08:37:51.553Z,38.89
2022-08-12T08:38:58.298Z,36.82
2022-08-12T08:39:51.623Z,37.41
2022-08-12T08:40:51.599Z,37.41
2022-08-12T08:42:16.165Z,38.39
2022-08-12T08:42:51.669Z,38.79
2022-08-12T08:43:51.490Z,37.70
2022-08-12T08:44:58.078Z,38.47
2022-08-12T08:45:51.459Z,36.70
2022-08-12T08:46:51.452Z,37.78
2022-08-12T08:47:51.421Z,37.27
2022-08-12T08:48:51.409Z,37.27
2022-08-12T08:49:51.397Z,38.67
2022-08-12T08:51:04.334Z,38.26
2022-08-12T08:51:51.423Z,37.76
2022-08-12T08:52:51.358Z,38.83
2022-08-12T08:53:51.909Z,36.36
2022-08-12T08:54:51.333Z,35.58
2022-08-12T08:56:04.522Z,36.17
2022-08-12T08:56:51.330Z,36.45
2022-08-12T08:57:51.313Z,36.65
2022-08-12T08:58:51.284Z,36.53
2022-08-12T08:59:51.657Z,35.64
2022-08-12T09:00:51.280Z,36.23
2022-08-12T09:01:51.333Z,36.33
2022-08-12T09:02:59.179Z,36.92
2022-08-12T09:05:08.252Z,36.41
2022-08-12T09:05:12.657Z,35.53
2022-08-12T09:06:02.045Z,35.72
2022-08-12T09:06:53.720Z,36.41
2022-08-12T09:08:11.938Z,35.53
2022-08-12T09:08:51.164Z,35.31
2022-08-12T09:10:02.398Z,35.51
2022-08-12T09:10:53.295Z,34.92
2022-08-12T09:12:07.414Z,34.51
2022-08-12T09:12:54.120Z,35.30
2022-08-12T09:14:51.485Z,33.53
2022-08-12T09:15:56.007Z,33.13
2022-08-12T09:16:51.263Z,33.23
2022-08-12T09:17:51.129Z,33.23
2022-08-12T09:18:52.589Z,33.22
2022-08-12T09:19:56.877Z,34.08
2022-08-12T09:20:51.062Z,34.38
2022-08-12T09:21:54.501Z,33.18
2022-08-12T09:22:51.205Z,31.51
2022-08-12T09:23:59.128Z,31.50
2022-08-12T09:24:51.012Z,32.17
2022-08-12T09:29:15.409Z,31.04
2022-08-12T09:30:15.087Z,31.42
2022-08-12T09:32:03.817Z,31.32
2022-08-12T09:32:31.540Z,31.41
2022-08-12T09:33:19.307Z,29.63
2022-08-12T09:34:25.523Z,28.85
2022-08-12T09:35:18.482Z,28.96
2022-08-12T09:36:15.012Z,29.46
2022-08-12T09:37:19.420Z,30.05
2022-08-12T09:38:28.097Z,30.54
2022-08-12T09:40:00.827Z,30.07
2022-08-12T09:41:01.739Z,30.93
2022-08-12T09:42:33.420Z,31.88
2022-08-12T09:42:40.434Z,31.77
2022-08-12T09:43:16.713Z,30.19
2022-08-12T09:44:39.250Z,28.61
2022-08-12T09:45:19.327Z,29.00
2022-08-12T09:46:22.347Z,28.91
2022-08-12T09:47:14.879Z,29.08
2022-08-12T09:48:19.871Z,28.97
2022-08-12T09:49:16.352Z,28.58
2022-08-12T09:50:20.271Z,29.25
2022-08-12T09:51:17.221Z,28.97
2022-08-12T09:52:14.853Z,28.19
2022-08-12T09:53:15.827Z,27.42
2022-08-12T09:54:33.358Z,28.19
2022-08-12T09:56:05.878Z,27.98
2022-08-12T09:56:58.451Z,28.28
2022-08-12T09:58:47.027Z,28.47
2022-08-12T09:58:56.620Z,28.18
2022-08-12T09:59:14.784Z,27.61
2022-08-12T10:00:26.083Z,28.40
2022-08-12T10:01:23.409Z,28.00
2022-08-12T10:02:52.945Z,28.23
2022-08-12T10:03:32.189Z,28.04
2022-08-12T10:04:14.949Z,28.63
2022-08-12T10:05:17.894Z,29.03
2022-08-12T10:06:26.906Z,29.59
2022-08-12T10:07:22.989Z,28.42
2022-08-12T10:08:14.721Z,29.47
2022-08-12T10:09:14.738Z,28.00
2022-08-12T10:10:24.598Z,28.09
2022-08-12T10:11:18.570Z,27.98
2022-08-12T10:12:14.695Z,27.97
2022-08-12T10:13:17.103Z,27.29
2022-08-12T10:14:14.712Z,27.87
2022-08-12T10:15:15.175Z,26.61
2022-08-12T10:16:18.541Z,26.61
2022-08-12T10:17:14.670Z,26.70
2022-08-12T10:18:14.676Z,26.73
2022-08-12T10:19:16.965Z,27.02
2022-08-12T10:20:14.656Z,26.62
2022-08-12T10:21:14.678Z,26.61
2022-08-12T10:22:16.895Z,26.61
2022-08-12T10:23:14.639Z,26.98
2022-08-12T10:24:14.634Z,26.69
2022-08-12T10:25:16.397Z,26.70
2022-08-12T10:26:35.119Z,27.81
2022-08-12T10:27:15.845Z,28.30
2022-08-12T10:28:24.855Z,28.00
2022-08-12T10:30:01.081Z,27.98
2022-08-12T10:30:42.092Z,28.26
2022-08-12T10:31:15.998Z,26.98
2022-08-12T10:32:21.651Z,26.98
2022-08-12T10:33:18.204Z,26.79
2022-08-12T10:34:25.885Z,28.64
2022-08-12T10:35:14.602Z,27.95
2022-08-12T10:36:14.575Z,28.04
2022-08-12T10:37:58.166Z,27.54
2022-08-12T10:38:34.507Z,26.87
2022-08-12T10:40:01.131Z,26.57
2022-08-12T10:40:20.032Z,26.55
2022-08-12T10:41:19.071Z,25.19
2022-08-12T10:42:14.573Z,25.58
2022-08-12T10:43:16.719Z,25.70
2022-08-12T10:44:17.481Z,25.73
2022-08-12T10:45:18.280Z,27.12
2022-08-12T10:46:14.567Z,27.12
2022-08-12T10:47:26.615Z,27.12
2022-08-12T10:48:21.979Z,28.38
2022-08-12T10:50:10.499Z,28.45
2022-08-12T10:50:33.901Z,28.45
2022-08-12T10:52:02.850Z,27.86
2022-08-12T10:52:47.124Z,28.23
2022-08-12T10:53:19.572Z,27.94
2022-08-12T10:54:14.515Z,27.93
2022-08-12T10:55:14.488Z,27.04
2022-08-12T10:56:14.499Z,25.59
2022-08-12T10:57:18.557Z,26.87
2022-08-12T10:58:28.363Z,27.48
2022-08-12T10:59:14.460Z,26.61
2022-08-12T11:00:34.161Z,28.25
2022-08-12T11:01:49.575Z,27.47
2022-08-12T11:04:19.619Z,27.47
2022-08-12T11:04:23.264Z,26.87
2022-08-12T11:04:37.177Z,26.09
2022-08-12T11:07:03.071Z,26.09
2022-08-12T11:07:08.652Z,25.70
2022-08-12T11:08:34.897Z,26.76
2022-08-12T11:08:38.073Z,26.19
2022-08-12T11:09:14.487Z,25.60
2022-08-12T11:10:14.490Z,26.97
2022-08-12T11:11:16.696Z,26.87
2022-08-12T11:12:56.115Z,25.99
2022-08-12T11:13:14.393Z,26.57
2022-08-12T11:14:49.515Z,26.67
2022-08-12T11:15:19.286Z,26.84
2022-08-12T11:16:22.175Z,25.69
2022-08-12T11:17:43.198Z,25.69
2022-08-12T11:18:18.386Z,25.79
2022-08-12T11:19:14.356Z,25.69
2022-08-12T11:20:15.105Z,26.18
2022-08-12T11:21:15.909Z,25.97
2022-08-12T11:22:14.400Z,25.20
2022-08-12T11:23:25.190Z,25.01
2022-08-12T11:24:30.276Z,25.49
2022-08-12T11:25:14.347Z,26.86
2022-08-12T11:26:14.326Z,26.86
2022-08-12T11:27:14.317Z,27.15
2022-08-12T11:28:14.584Z,26.76
2022-08-12T11:29:22.533Z,27.82
2022-08-12T11:30:31.529Z,28.19
2022-08-12T11:31:14.725Z,28.08
2022-08-12T11:32:14.321Z,26.72
2022-08-12T11:33:24.074Z,26.33
2022-08-12T11:34:53.780Z,25.56
2022-08-12T11:35:14.276Z,24.88
2022-08-12T11:36:14.620Z,25.18
2022-08-12T11:37:25.795Z,24.60
2022-08-12T11:38:14.227Z,24.90
2022-08-12T11:39:14.246Z,24.43
2022-08-12T11:40:14.226Z,25.10
2022-08-12T11:41:14.211Z,25.40
2022-08-12T11:42:14.224Z,24.91
2022-08-12T11:43:19.918Z,25.59
2022-08-12T11:44:35.651Z,26.57
2022-08-12T11:45:16.281Z,25.78
2022-08-12T11:46:14.198Z,25.38
2022-08-12T11:47:14.201Z,24.41
2022-08-12T11:48:15.208Z,24.90
2022-08-12T11:49:26.862Z,23.83
2022-08-12T11:50:19.737Z,24.43
2022-08-12T11:51:14.162Z,24.91
2022-08-12T11:52:17.242Z,24.13
2022-08-12T11:53:59.071Z,23.77
2022-08-12T11:54:14.790Z,24.06
2022-08-12T11:55:14.832Z,24.45
2022-08-12T11:56:14.134Z,25.12
2022-08-12T11:58:14.643Z,26.57
2022-08-12T11:59:20.478Z,25.68
2022-08-12T12:02:01.305Z,25.67
2022-08-12T12:02:19.227Z,24.98
2022-08-12T12:03:17.314Z,26.64
2022-08-12T12:04:29.226Z,25.85
2022-08-12T12:05:14.231Z,25.75
2022-08-12T12:06:16.386Z,26.33
2022-08-12T12:07:14.123Z,25.74
2022-08-12T12:08:38.416Z,25.25
2022-08-12T12:09:14.342Z,24.57
2022-08-12T12:10:14.238Z,25.15
2022-08-12T12:11:14.169Z,24.68
2022-08-12T12:12:14.163Z,25.95
2022-08-12T12:14:05.350Z,26.53
2022-08-12T12:14:14.142Z,24.60
2022-08-12T12:15:14.279Z,25.69
2022-08-12T12:16:14.372Z,26.47
2022-08-12T12:17:14.168Z,25.38
2022-08-12T12:18:14.035Z,25.27
2022-08-12T12:19:14.128Z,25.16
2022-08-12T12:20:14.064Z,25.64
2022-08-12T12:21:14.067Z,25.64
2022-08-12T12:22:15.777Z,24.07
2022-08-12T12:23:28.825Z,24.76
2022-08-12T12:24:14.002Z,23.59
2022-08-12T12:25:14.484Z,23.50
2022-08-12T12:26:35.491Z,23.31
2022-08-12T12:27:19.289Z,23.79
2022-08-12T12:28:19.997Z,24.07
2022-08-12T12:30:20.043Z,24.28
2022-08-12T12:30:25.414Z,22.91
2022-08-12T12:31:15.170Z,24.00
2022-08-12T12:32:13.967Z,25.08
2022-08-12T12:33:18.121Z,25.36
2022-08-12T12:34:30.449Z,24.88
2022-08-12T12:36:05.983Z,25.64
2022-08-12T12:36:20.399Z,25.24
2022-08-12T12:37:16.147Z,24.34
2022-08-12T12:38:13.938Z,23.76
2022-08-12T12:39:13.955Z,23.76
2022-08-12T12:40:14.023Z,23.85
2022-08-12T12:41:14.272Z,23.07
2022-08-12T12:42:45.611Z,22.68
2022-08-12T12:43:14.063Z,23.55
2022-08-12T12:44:25.786Z,22.68
2022-08-12T12:45:25.900Z,23.55
2022-08-12T12:46:13.898Z,23.75
2022-08-12T12:47:28.887Z,22.96
2022-08-12T12:48:13.909Z,23.74
2022-08-12T12:49:15.278Z,24.23
2022-08-12T12:50:34.826Z,23.54
2022-08-12T12:51:13.877Z,24.30
2022-08-12T12:52:19.071Z,23.91
2022-08-12T12:54:05.121Z,22.74
2022-08-12T12:54:13.858Z,23.70
2022-08-12T12:55:13.855Z,23.32
2022-08-12T12:56:13.848Z,22.43
2022-08-12T12:57:13.846Z,21.19
2022-08-12T12:58:13.833Z,20.62
2022-08-12T12:59:54.996Z,21.59